createdAt,value
2018-05-25T00:01:26.685Z,82.80
2018-05-25T00:03:54.295Z,82.80
2018-05-25T00:06:21.949Z,83.00
2018-05-25T00:08:50.330Z,83.60
2018-05-25T00:11:17.952Z,83.50
2018-05-25T00:13:45.648Z,83.70
2018-05-25T00:16:13.944Z,84.10
2018-05-25T00:18:41.477Z,84.40
2018-05-25T00:21:09.045Z,85.00
2018-05-25T00:23:36.631Z,85.10
2018-05-25T00:26:04.163Z,85.20
2018-05-25T00:28:31.762Z,85.50
2018-05-25T00:30:59.290Z,85.70
2018-05-25T00:33:26.833Z,86.10
2018-05-25T00:35:55.241Z,86.90
2018-05-25T00:38:22.790Z,86.90
2018-05-25T00:40:50.325Z,87.20
2018-05-25T00:43:17.914Z,87.30
2018-05-25T00:45:45.461Z,87.60
2018-05-25T00:48:13.017Z,87.90
2018-05-25T00:50:41.365Z,88.70
2018-05-25T00:53:08.899Z,88.50
2018-05-25T00:55:41.205Z,88.90
2018-05-25T00:58:08.773Z,89.10
2018-05-25T01:00:36.313Z,89.40
2018-05-25T01:03:04.736Z,89.80
2018-05-25T01:05:32.265Z,89.80
2018-05-25T01:08:00.564Z,90.10
2018-05-25T01:10:28.912Z,90.10
2018-05-25T01:12:56.441Z,90.10
2018-05-25T01:15:25.421Z,90.70
2018-05-25T01:17:55.413Z,90.60
2018-05-25T01:20:22.933Z,90.60
2018-05-25T01:22:50.465Z,90.70
2018-05-25T01:25:18.045Z,90.90
2018-05-25T01:27:45.575Z,91.00
2018-05-25T01:30:13.104Z,91.50
2018-05-25T01:32:41.462Z,91.30
2018-05-25T01:35:08.991Z,91.30
2018-05-25T01:37:36.529Z,91.40
2018-05-25T01:40:04.872Z,91.70
2018-05-25T01:42:32.397Z,91.70
2018-05-25T01:45:00.689Z,91.90
2018-05-25T01:47:29.032Z,92.00
2018-05-25T01:49:56.569Z,92.00
2018-05-25T01:52:24.816Z,92.10
2018-05-25T01:54:52.392Z,92.30
2018-05-25T01:57:20.705Z,92.60
2018-05-25T01:59:49.029Z,92.70
2018-05-25T02:02:16.603Z,92.70
2018-05-25T02:04:44.152Z,92.90
2018-05-25T02:07:11.686Z,92.90
2018-05-25T02:09:40.033Z,93.10
2018-05-25T02:12:07.577Z,93.10
2018-05-25T02:14:35.108Z,93.30
2018-05-25T02:17:02.676Z,93.50
2018-05-25T02:19:30.204Z,93.60
2018-05-25T02:21:57.729Z,93.70
2018-05-25T02:24:26.076Z,94.00
2018-05-25T02:26:53.629Z,93.90
2018-05-25T02:29:21.160Z,94.10
2018-05-25T02:31:48.724Z,94.20
2018-05-25T02:34:16.259Z,94.30
2018-05-25T02:36:43.781Z,94.50
2018-05-25T02:39:12.124Z,94.70
2018-05-25T02:41:39.661Z,94.70
2018-05-25T02:44:07.189Z,94.70
2018-05-25T02:46:34.778Z,94.80
2018-05-25T02:49:03.072Z,95.00
2018-05-25T02:51:31.387Z,95.10
2018-05-25T02:53:58.960Z,95.10
2018-05-25T02:56:26.498Z,95.20
2018-05-25T02:58:54.021Z,95.20
2018-05-25T03:01:21.584Z,95.20
2018-05-25T03:03:49.123Z,95.30
2018-05-25T03:06:17.425Z,95.50
2018-05-25T03:08:45.088Z,95.50
2018-05-25T03:11:12.698Z,95.60
2018-05-25T03:13:40.240Z,95.60
2018-05-25T03:16:07.806Z,95.70
2018-05-25T03:18:35.332Z,95.80
2018-05-25T03:21:02.859Z,95.90
2018-05-25T03:23:30.439Z,96.00
2018-05-25T03:25:57.960Z,96.00
2018-05-25T03:28:25.484Z,96.20
2018-05-25T03:30:53.057Z,96.30
2018-05-25T03:33:20.594Z,96.40
2018-05-25T03:35:48.880Z,96.50
2018-05-25T03:38:17.214Z,96.50
2018-05-25T03:40:44.744Z,96.50
2018-05-25T03:43:13.042Z,96.90
2018-05-25T03:45:40.608Z,96.60
2018-05-25T03:48:08.893Z,96.40
2018-05-25T03:50:37.194Z,96.30
2018-05-25T03:53:04.765Z,96.30
2018-05-25T03:55:32.292Z,96.20
2018-05-25T03:57:59.820Z,95.90
2018-05-25T04:00:39.085Z,95.00
2018-05-25T04:03:06.612Z,93.90
2018-05-25T04:05:34.923Z,92.00
2018-05-25T04:08:02.490Z,92.00
2018-05-25T04:10:30.023Z,91.40
2018-05-25T04:12:57.548Z,90.40
2018-05-25T04:15:25.625Z,89.70
2018-05-25T04:17:53.149Z,88.80
2018-05-25T04:20:21.581Z,87.50
2018-05-25T04:22:49.377Z,86.40
2018-05-25T04:25:16.904Z,85.60
2018-05-25T04:27:44.429Z,84.50
2018-05-25T04:30:12.010Z,83.30
2018-05-25T04:32:39.573Z,81.90
2018-05-25T04:35:07.118Z,81.70
2018-05-25T04:37:34.693Z,80.60
2018-05-25T04:40:02.222Z,79.80
2018-05-25T04:42:30.529Z,79.00
2018-05-25T04:44:58.097Z,79.00
2018-05-25T04:47:25.864Z,78.60
2018-05-25T04:49:54.154Z,77.90
2018-05-25T04:52:22.493Z,77.90
2018-05-25T04:54:50.017Z,77.80
2018-05-25T04:57:18.313Z,75.70
2018-05-25T04:59:45.906Z,75.70
2018-05-25T05:02:13.479Z,74.60
2018-05-25T05:04:41.012Z,72.60
2018-05-25T05:07:09.344Z,70.70
2018-05-25T05:09:36.869Z,70.70
2018-05-25T05:12:05.166Z,69.50
2018-05-25T05:14:33.503Z,68.00
2018-05-25T05:17:01.028Z,67.90
2018-05-25T05:19:29.316Z,68.20
2018-05-25T05:21:57.648Z,68.50
2018-05-25T05:24:26.100Z,68.50
2018-05-25T05:26:53.656Z,66.80
2018-05-25T05:29:21.998Z,64.20
2018-05-25T05:31:49.534Z,64.20
2018-05-25T05:34:18.289Z,62.90
2018-05-25T05:36:45.940Z,62.80
2018-05-25T05:39:13.464Z,62.10
2018-05-25T05:41:41.756Z,62.10
2018-05-25T05:44:10.085Z,62.80
2018-05-25T05:46:37.621Z,62.80
2018-05-25T05:49:05.922Z,61.70
2018-05-25T05:51:33.500Z,61.70
2018-05-25T05:54:01.042Z,61.70
2018-05-25T05:56:29.360Z,61.40
2018-05-25T05:58:56.935Z,61.30
2018-05-25T06:01:24.505Z,58.90
2018-05-25T06:03:52.082Z,57.00
2018-05-25T06:06:19.659Z,57.30
2018-05-25T06:08:47.191Z,57.80
2018-05-25T06:11:16.329Z,58.50
2018-05-25T06:13:43.906Z,58.50
2018-05-25T06:16:11.433Z,57.60
2018-05-25T06:18:39.733Z,56.90
2018-05-25T06:21:08.082Z,55.40
2018-05-25T06:23:35.609Z,55.40
2018-05-25T06:26:03.149Z,53.00
2018-05-25T06:28:30.720Z,52.10
2018-05-25T06:30:59.025Z,50.10
2018-05-25T06:33:27.324Z,50.50
2018-05-25T06:35:54.889Z,50.50
2018-05-25T06:38:23.185Z,51.70
2018-05-25T06:40:50.712Z,51.70
2018-05-25T06:43:18.285Z,52.50
2018-05-25T06:45:45.816Z,53.60
2018-05-25T06:48:13.340Z,54.40
2018-05-25T06:50:41.688Z,55.80
2018-05-25T06:53:09.244Z,55.80
2018-05-25T06:55:36.772Z,55.80
2018-05-25T06:58:04.364Z,55.90
2018-05-25T07:00:31.964Z,57.00
2018-05-25T07:02:59.496Z,57.60
2018-05-25T07:05:27.837Z,58.60
2018-05-25T07:07:55.370Z,58.50
2018-05-25T07:10:23.664Z,58.00
2018-05-25T07:12:51.227Z,58.00
2018-05-25T07:15:19.524Z,58.40
2018-05-25T07:17:47.127Z,58.30
2018-05-25T07:20:14.789Z,58.70
2018-05-25T07:22:42.317Z,58.80
2018-05-25T07:25:10.645Z,59.00
2018-05-25T07:27:38.216Z,58.90
2018-05-25T07:30:05.797Z,60.00
2018-05-25T07:32:33.324Z,59.70
2018-05-25T07:35:01.769Z,61.20
2018-05-25T07:37:29.313Z,61.20
2018-05-25T07:39:56.850Z,61.50
2018-05-25T07:42:24.416Z,62.20
2018-05-25T07:44:51.936Z,62.20
2018-05-25T07:47:19.456Z,62.40
2018-05-25T07:49:47.020Z,62.80
2018-05-25T07:52:14.554Z,63.00
2018-05-25T07:54:42.089Z,63.40
2018-05-25T07:57:10.426Z,64.10
2018-05-25T07:59:37.948Z,63.90
2018-05-25T08:02:06.246Z,64.20
2018-05-25T08:04:33.823Z,64.10
2018-05-25T08:07:01.350Z,63.80
2018-05-25T08:09:28.889Z,63.60
2018-05-25T08:11:57.857Z,63.30
2018-05-25T08:14:25.360Z,63.30
2018-05-25T08:16:52.898Z,64.10
2018-05-25T08:19:21.235Z,63.40
2018-05-25T08:21:48.817Z,63.30
2018-05-25T08:24:16.316Z,62.60
2018-05-25T08:26:44.660Z,63.20
2018-05-25T08:29:12.198Z,63.10
2018-05-25T08:31:39.748Z,63.70
2018-05-25T08:34:08.133Z,63.40
2018-05-25T08:36:36.496Z,63.40
2018-05-25T08:39:04.016Z,63.40
2018-05-25T08:41:31.609Z,63.40
2018-05-25T08:43:59.132Z,63.70
2018-05-25T08:46:27.129Z,63.60
2018-05-25T08:48:56.403Z,63.70
2018-05-25T08:51:23.920Z,63.60
2018-05-25T08:53:51.478Z,63.50
2018-05-25T08:56:19.826Z,62.40
2018-05-25T08:58:47.352Z,62.40
2018-05-25T09:01:14.903Z,62.30
2018-05-25T09:03:42.513Z,62.30
2018-05-25T09:06:10.033Z,61.60
2018-05-25T09:08:38.332Z,61.10
2018-05-25T09:11:05.907Z,61.00
2018-05-25T09:13:34.217Z,61.20
2018-05-25T09:16:02.513Z,60.70
2018-05-25T09:18:30.093Z,60.60
2018-05-25T09:20:57.616Z,61.60
2018-05-25T09:23:25.160Z,60.90
2018-05-25T09:25:52.736Z,61.00
2018-05-25T09:28:20.268Z,60.50
2018-05-25T09:30:47.835Z,60.20
2018-05-25T09:33:16.165Z,61.50
2018-05-25T09:35:43.707Z,61.50
2018-05-25T09:38:11.251Z,59.60
2018-05-25T09:40:39.584Z,59.80
2018-05-25T09:43:07.185Z,59.80
2018-05-25T09:45:34.731Z,59.50
2018-05-25T09:48:02.310Z,58.80
2018-05-25T09:50:29.852Z,58.90
2018-05-25T09:52:58.335Z,57.90
2018-05-25T09:55:25.909Z,57.90
2018-05-25T09:57:56.326Z,56.90
2018-05-25T10:00:25.466Z,57.80
2018-05-25T10:02:52.997Z,57.80
2018-05-25T10:05:21.297Z,58.50
2018-05-25T10:07:49.640Z,58.50
2018-05-25T10:10:17.168Z,58.50
2018-05-25T10:12:44.698Z,58.80
2018-05-25T10:15:12.287Z,59.00
2018-05-25T10:17:40.589Z,59.60
2018-05-25T10:20:09.134Z,59.40
2018-05-25T10:22:37.517Z,59.60
2018-05-25T10:25:05.037Z,59.60
2018-05-25T10:27:33.330Z,59.20
2018-05-25T10:30:01.784Z,58.90
2018-05-25T10:32:30.149Z,58.60
2018-05-25T10:34:58.504Z,59.10
2018-05-25T10:37:27.845Z,57.60
2018-05-25T10:39:55.425Z,57.60
2018-05-25T10:42:22.956Z,57.00
2018-05-25T10:44:51.287Z,57.30
2018-05-25T10:47:18.821Z,57.20
2018-05-25T10:49:47.122Z,55.30
2018-05-25T10:52:14.707Z,55.30
2018-05-25T10:54:42.232Z,54.90
2018-05-25T10:57:09.757Z,54.80
2018-05-25T10:59:37.335Z,55.10
2018-05-25T11:04:40.372Z,53.80
2018-05-25T11:07:07.931Z,53.70
2018-05-25T11:09:35.471Z,52.80
2018-05-25T11:12:03.809Z,54.70
2018-05-25T11:14:31.333Z,54.70
2018-05-25T11:16:58.862Z,55.30
2018-05-25T11:19:26.440Z,54.40
2018-05-25T11:21:53.965Z,54.40
2018-05-25T11:24:21.497Z,54.70
2018-05-25T11:26:49.921Z,51.90
2018-05-25T11:29:17.461Z,51.90
2018-05-25T11:31:45.761Z,51.50
2018-05-25T11:34:14.088Z,53.00
2018-05-25T11:36:41.621Z,52.90
2018-05-25T11:39:09.910Z,52.40
2018-05-25T11:41:38.253Z,50.30
2018-05-25T11:44:05.794Z,50.20
2018-05-25T11:46:33.334Z,50.30
2018-05-25T11:49:00.919Z,50.80
2018-05-25T11:51:28.442Z,50.90
2018-05-25T11:53:55.973Z,51.00
2018-05-25T11:56:23.537Z,50.90
2018-05-25T11:58:51.065Z,51.60
2018-05-25T12:01:18.628Z,52.00
2018-05-25T12:03:46.196Z,52.90
2018-05-25T12:06:13.724Z,53.10
2018-05-25T12:08:41.257Z,52.70
2018-05-25T12:11:08.832Z,53.00
2018-05-25T12:13:36.361Z,53.30
2018-05-25T12:16:03.889Z,53.20
2018-05-25T12:18:32.271Z,53.80
2018-05-25T12:21:00.562Z,53.50
2018-05-25T12:23:28.314Z,53.40
2018-05-25T12:25:55.887Z,53.80
2018-05-25T12:28:23.417Z,54.10
2018-05-25T12:30:50.936Z,54.10
2018-05-25T12:33:18.509Z,54.70
2018-05-25T12:35:46.045Z,54.80
2018-05-25T12:38:13.600Z,54.90
2018-05-25T12:40:41.177Z,55.10
2018-05-25T12:43:08.757Z,55.00
2018-05-25T12:45:36.293Z,54.00
2018-05-25T12:48:03.882Z,53.70
2018-05-25T12:50:31.416Z,54.00
2018-05-25T12:52:59.713Z,53.80
2018-05-25T12:55:28.965Z,54.00
2018-05-25T12:57:56.532Z,54.00
2018-05-25T13:00:25.317Z,54.30
2018-05-25T13:02:54.501Z,53.20
2018-05-25T13:05:23.808Z,52.40
2018-05-25T13:07:51.903Z,52.20
2018-05-25T13:10:21.870Z,51.60
2018-05-25T13:12:53.077Z,53.20
2018-05-25T13:15:21.499Z,54.00
2018-05-25T13:17:49.685Z,54.50
2018-05-25T13:20:19.416Z,54.50
2018-05-25T13:22:48.209Z,55.00
2018-05-25T13:25:17.589Z,55.80
2018-05-25T13:27:47.154Z,56.00
2018-05-25T13:30:17.068Z,56.70
2018-05-25T13:32:46.230Z,58.00
2018-05-25T13:35:14.874Z,56.40
2018-05-25T13:37:43.576Z,56.40
2018-05-25T13:40:11.760Z,56.00
2018-05-25T13:42:40.529Z,55.60
2018-05-25T13:45:08.488Z,54.90
2018-05-25T13:47:37.444Z,54.50
2018-05-25T13:50:05.409Z,54.50
2018-05-25T13:52:34.779Z,55.20
2018-05-25T13:55:05.102Z,54.90
2018-05-25T13:57:33.731Z,54.60
2018-05-25T14:00:02.476Z,55.00
2018-05-25T14:02:30.339Z,55.00
2018-05-25T14:04:57.880Z,54.00
2018-05-25T14:07:25.444Z,54.10
2018-05-25T14:09:52.994Z,54.40
2018-05-25T14:12:20.520Z,54.80
2018-05-25T14:14:48.121Z,54.20
2018-05-25T14:17:15.652Z,54.10
2018-05-25T14:19:43.957Z,54.00
2018-05-25T14:22:11.530Z,54.00
2018-05-25T14:24:39.077Z,53.10
2018-05-25T14:27:07.379Z,52.90
2018-05-25T14:29:34.944Z,52.90
2018-05-25T14:32:03.241Z,53.30
2018-05-25T14:34:30.772Z,53.30
2018-05-25T14:36:58.348Z,53.40
2018-05-25T14:39:25.982Z,54.60
2018-05-25T14:41:53.573Z,53.00
2018-05-25T14:44:21.419Z,52.90
2018-05-25T14:46:49.020Z,53.20
2018-05-25T14:49:16.785Z,53.20
2018-05-25T14:51:44.383Z,53.00
2018-05-25T14:54:11.961Z,53.80
2018-05-25T14:56:39.497Z,53.50
2018-05-25T14:59:07.126Z,53.20
2018-05-25T15:01:34.633Z,53.60
2018-05-25T15:04:02.169Z,53.70
2018-05-25T15:06:31.439Z,53.30
2018-05-25T15:08:58.975Z,53.30
2018-05-25T15:11:26.564Z,53.70
2018-05-25T15:13:54.189Z,54.30
2018-05-25T15:16:22.485Z,54.70
2018-05-25T15:18:52.537Z,54.50
2018-05-25T15:21:20.149Z,54.50
2018-05-25T15:23:47.699Z,55.10
2018-05-25T15:26:15.241Z,54.60
2018-05-25T15:28:42.820Z,55.00
2018-05-25T15:31:10.350Z,55.00
2018-05-25T15:33:37.877Z,55.20
2018-05-25T15:36:05.451Z,55.20
2018-05-25T15:38:32.980Z,54.90
2018-05-25T15:41:00.773Z,54.80
2018-05-25T15:43:28.349Z,54.90
2018-05-25T15:45:55.882Z,54.10
2018-05-25T15:48:23.405Z,53.70
2018-05-25T15:50:50.996Z,54.10
2018-05-25T15:53:18.546Z,53.50
2018-05-25T15:55:46.084Z,53.60
2018-05-25T15:58:14.420Z,52.60
2018-05-25T16:00:41.953Z,52.60
2018-05-25T16:03:10.269Z,52.80
2018-05-25T16:05:37.865Z,52.80
2018-05-25T16:08:05.423Z,52.70
2018-05-25T16:10:32.949Z,52.60
2018-05-25T16:13:01.814Z,52.80
2018-05-25T16:15:29.381Z,52.80
2018-05-25T16:17:56.909Z,53.20
2018-05-25T16:20:24.492Z,52.80
2018-05-25T16:22:52.024Z,52.70
2018-05-25T16:25:19.561Z,52.20
2018-05-25T16:27:47.135Z,52.20
2018-05-25T16:30:14.666Z,52.00
2018-05-25T16:32:42.210Z,52.20
2018-05-25T16:35:10.557Z,51.40
2018-05-25T16:37:38.076Z,51.30
2018-05-25T16:40:06.452Z,50.40
2018-05-25T16:42:34.164Z,50.40
2018-05-25T16:45:01.701Z,50.50
2018-05-25T16:47:29.233Z,51.10
2018-05-25T16:49:56.804Z,51.40
2018-05-25T16:52:24.328Z,52.10
2018-05-25T16:54:52.628Z,53.40
2018-05-25T16:57:20.977Z,54.20
2018-05-25T16:59:48.502Z,54.20
2018-05-25T17:02:16.034Z,54.50
2018-05-25T17:04:43.637Z,55.70
2018-05-25T17:07:11.165Z,55.40
2018-05-25T17:09:38.757Z,55.90
2018-05-25T17:12:06.325Z,56.10
2018-05-25T17:14:33.861Z,56.60
2018-05-25T17:17:01.387Z,56.80
2018-05-25T17:19:29.720Z,57.40
2018-05-25T17:21:57.252Z,57.40
2018-05-25T17:24:24.793Z,57.40
2018-05-25T17:26:53.128Z,57.60
2018-05-25T17:29:20.658Z,57.50
2018-05-25T17:31:48.192Z,57.60
2018-05-25T17:34:15.772Z,57.50
2018-05-25T17:36:43.302Z,57.50
2018-05-25T17:39:10.890Z,57.60
2018-05-25T17:41:38.464Z,58.20
2018-05-25T17:44:05.996Z,58.40
2018-05-25T17:46:34.296Z,58.40
2018-05-25T17:49:01.870Z,58.30
2018-05-25T17:51:29.484Z,58.50
2018-05-25T17:53:57.013Z,58.90
2018-05-25T17:56:24.609Z,59.40
2018-05-25T17:58:52.134Z,59.70
2018-05-25T18:01:19.665Z,60.20
2018-05-25T18:03:47.300Z,60.90
2018-05-25T18:06:14.845Z,61.40
2018-05-25T18:08:43.141Z,62.50
2018-05-25T18:11:11.780Z,62.90
2018-05-25T18:13:39.329Z,62.80
2018-05-25T18:16:06.931Z,62.90
2018-05-25T18:18:34.615Z,63.50
2018-05-25T18:21:02.173Z,63.60
2018-05-25T18:23:29.710Z,63.90
2018-05-25T18:25:58.049Z,64.60
2018-05-25T18:28:25.578Z,64.40
2018-05-25T18:30:53.181Z,64.70
2018-05-25T18:33:20.766Z,64.80
2018-05-25T18:35:48.400Z,64.80
2018-05-25T18:38:16.424Z,65.20
2018-05-25T18:40:44.090Z,65.50
2018-05-25T18:43:11.628Z,66.00
2018-05-25T18:45:39.156Z,66.10
2018-05-25T18:48:06.745Z,66.70
2018-05-25T18:50:34.284Z,67.30
2018-05-25T18:53:02.373Z,67.60
2018-05-25T18:55:29.940Z,68.40
2018-05-25T18:57:57.476Z,68.80
2018-05-25T19:00:25.016Z,69.20
2018-05-25T19:02:52.600Z,69.50
2018-05-25T19:05:20.169Z,69.90
2018-05-25T19:07:48.482Z,70.10
2018-05-25T19:10:16.085Z,70.10
2018-05-25T19:12:43.627Z,70.00
2018-05-25T19:15:11.166Z,70.20
2018-05-25T19:17:39.602Z,70.80
2018-05-25T19:20:07.138Z,70.10
2018-05-25T19:22:35.429Z,70.70
2018-05-25T19:25:03.769Z,70.70
2018-05-25T19:27:32.993Z,70.70
2018-05-25T19:30:00.533Z,70.60
2018-05-25T19:32:28.159Z,71.10
2018-05-25T19:34:55.676Z,71.20
2018-05-25T19:37:23.214Z,71.10
2018-05-25T19:39:51.561Z,71.40
2018-05-25T19:42:19.157Z,71.40
2018-05-25T19:44:47.454Z,71.10
2018-05-25T19:47:15.785Z,71.50
2018-05-25T19:49:43.316Z,71.40
2018-05-25T19:52:11.605Z,72.10
2018-05-25T19:54:39.937Z,72.10
2018-05-25T19:57:07.511Z,72.10
2018-05-25T19:59:35.162Z,71.80
2018-05-25T20:02:02.733Z,72.50
2018-05-25T20:04:30.278Z,72.60
2018-05-25T20:06:58.576Z,73.60
2018-05-25T20:09:26.935Z,73.90
2018-05-25T20:11:54.481Z,73.90
2018-05-25T20:14:22.041Z,74.20
2018-05-25T20:16:49.633Z,74.80
2018-05-25T20:19:17.198Z,75.30
2018-05-25T20:21:44.758Z,75.80
2018-05-25T20:24:12.330Z,76.30
2018-05-25T20:26:39.864Z,76.60
2018-05-25T20:29:08.165Z,77.80
2018-05-25T20:31:35.742Z,77.80
2018-05-25T20:34:03.297Z,78.50
2018-05-25T20:36:32.566Z,79.40
2018-05-25T20:39:00.145Z,79.30
2018-05-25T20:41:28.461Z,80.30
2018-05-25T20:43:56.765Z,80.70
2018-05-25T20:46:24.341Z,80.70
2018-05-25T20:48:51.864Z,81.00
2018-05-25T20:51:19.409Z,81.40
2018-05-25T20:53:46.991Z,81.70
2018-05-25T20:56:14.557Z,82.20
2018-05-25T20:58:42.113Z,82.80
2018-05-25T21:01:09.721Z,83.40
2018-05-25T21:03:37.252Z,83.90
2018-05-25T21:06:04.788Z,84.40
2018-05-25T21:08:32.827Z,85.00
2018-05-25T21:11:00.367Z,85.60
2018-05-25T21:13:27.907Z,85.90
2018-05-25T21:15:55.476Z,86.30
2018-05-25T21:18:23.028Z,86.70
2018-05-25T21:20:50.576Z,87.20
2018-05-25T21:23:18.146Z,87.10
2018-05-25T21:25:45.696Z,87.60
2018-05-25T21:28:13.235Z,87.60
2018-05-25T21:30:40.816Z,87.70
2018-05-25T21:33:09.109Z,88.00
2018-05-25T21:35:36.653Z,87.90
2018-05-25T21:38:04.263Z,87.90
2018-05-25T21:40:31.809Z,88.00
2018-05-25T21:43:00.121Z,88.20
2018-05-25T21:45:27.692Z,88.20
2018-05-25T21:47:55.229Z,88.20
2018-05-25T21:50:22.761Z,88.30
2018-05-25T21:52:50.331Z,88.30
2018-05-25T21:55:17.870Z,88.40
2018-05-25T21:57:46.164Z,88.40
2018-05-25T22:00:13.759Z,88.40
2018-05-25T22:02:41.298Z,88.80
2018-05-25T22:05:09.600Z,89.00
2018-05-25T22:07:37.165Z,89.00
2018-05-25T22:10:04.709Z,89.30
2018-05-25T22:12:33.173Z,89.70
2018-05-25T22:15:00.740Z,90.00
2018-05-25T22:17:28.269Z,90.20
2018-05-25T22:19:56.564Z,90.70
2018-05-25T22:22:24.194Z,90.70
2018-05-25T22:24:51.731Z,91.00
2018-05-25T22:27:19.261Z,91.30
2018-05-25T22:29:47.601Z,91.80
2018-05-25T22:32:15.132Z,91.70
2018-05-25T22:34:43.422Z,92.40
2018-05-25T22:37:11.001Z,92.40
2018-05-25T22:39:38.525Z,92.90
2018-05-25T22:42:05.573Z,93.20
2018-05-25T22:44:44.970Z,93.70
2018-05-25T22:47:24.940Z,94.50
2018-05-25T22:50:04.169Z,94.40
2018-05-25T22:52:38.585Z,95.20
2018-05-25T22:55:12.636Z,95.20
2018-05-25T22:57:40.165Z,95.50
2018-05-25T23:00:07.701Z,96.00
2018-05-25T23:02:35.278Z,96.20
2018-05-25T23:05:03.339Z,96.50
2018-05-25T23:07:30.874Z,96.70
2018-05-25T23:09:58.449Z,97.00
2018-05-25T23:12:25.990Z,97.40
2018-05-25T23:14:53.516Z,97.80
2018-05-25T23:17:21.863Z,98.80
2018-05-25T23:19:50.425Z,98.40
2018-05-25T23:22:17.955Z,98.70
2018-05-25T23:24:46.293Z,99.40
2018-05-25T23:27:13.821Z,99.40
2018-05-25T23:29:42.131Z,99.90
2018-05-25T23:32:09.703Z,99.90
2018-05-25T23:34:37.268Z,99.90
2018-05-25T23:37:05.552Z,99.90
2018-05-25T23:39:33.490Z,99.90
2018-05-25T23:42:01.021Z,99.90
2018-05-25T23:44:28.569Z,99.90
2018-05-25T23:46:56.901Z,99.90
2018-05-25T23:49:24.444Z,99.90
2018-05-25T23:51:52.115Z,99.90
2018-05-25T23:54:19.723Z,99.90
2018-05-25T23:56:47.243Z,99.90
2018-05-25T23:59:15.568Z,99.90
